sensor_id;sensor_type;location;lat;lon;timestamp;P1;durP1;ratioP1;P2;durP2;ratioP2
13951;SDS011;39535;52.192;9.886;2023-03-14T00:02:09;1.60;;;1.10;;
13951;SDS011;39535;52.192;9.886;2023-03-14T00:04:36;1.40;;;0.73;;
13951;SDS011;39535;52.192;9.886;2023-03-14T00:07:02;1.40;;;1.10;;
13951;SDS011;39535;52.192;9.886;2023-03-14T00:09:29;1.70;;;0.97;;
13951;SDS011;39535;52.192;9.886;2023-03-14T00:11:56;1.47;;;1.00;;
13951;SDS011;39535;52.192;9.886;2023-03-14T00:14:23;1.47;;;1.20;;
13951;SDS011;39535;52.192;9.886;2023-03-14T00:16:50;1.10;;;1.00;;
13951;SDS011;39535;52.192;9.886;2023-03-14T00:19:16;2.07;;;1.17;;
13951;SDS011;39535;52.192;9.886;2023-03-14T00:21:42;1.83;;;1.20;;
13951;SDS011;39535;52.192;9.886;2023-03-14T00:24:09;1.30;;;1.10;;
13951;SDS011;39535;52.192;9.886;2023-03-14T00:26:35;1.67;;;1.23;;
13951;SDS011;39535;52.192;9.886;2023-03-14T00:29:03;2.80;;;1.00;;
13951;SDS011;39535;52.192;9.886;2023-03-14T00:31:29;1.20;;;1.10;;
13951;SDS011;39535;52.192;9.886;2023-03-14T00:33:56;1.50;;;1.07;;
13951;SDS011;39535;52.192;9.886;2023-03-14T00:36:22;1.33;;;1.23;;
13951;SDS011;39535;52.192;9.886;2023-03-14T00:38:49;1.87;;;0.70;;
13951;SDS011;39535;52.192;9.886;2023-03-14T00:41:17;1.67;;;1.10;;
13951;SDS011;39535;52.192;9.886;2023-03-14T00:43:47;2.47;;;1.10;;
13951;SDS011;39535;52.192;9.886;2023-03-14T00:46:14;1.83;;;0.97;;
13951;SDS011;39535;52.192;9.886;2023-03-14T00:48:41;1.30;;;1.00;;
13951;SDS011;39535;52.192;9.886;2023-03-14T00:51:08;2.60;;;1.00;;
13951;SDS011;39535;52.192;9.886;2023-03-14T00:53:36;1.53;;;1.10;;
13951;SDS011;39535;52.192;9.886;2023-03-14T00:56:04;2.07;;;1.03;;
13951;SDS011;39535;52.192;9.886;2023-03-14T00:58:32;2.20;;;1.70;;
13951;SDS011;39535;52.192;9.886;2023-03-14T01:00:58;2.43;;;1.10;;
13951;SDS011;39535;52.192;9.886;2023-03-14T01:03:26;2.83;;;1.10;;
13951;SDS011;39535;52.192;9.886;2023-03-14T01:05:52;1.90;;;1.43;;
13951;SDS011;39535;52.192;9.886;2023-03-14T01:08:19;2.53;;;1.13;;
13951;SDS011;39535;52.192;9.886;2023-03-14T01:10:45;1.27;;;1.10;;
13951;SDS011;39535;52.192;9.886;2023-03-14T01:13:11;2.03;;;0.87;;
13951;SDS011;39535;52.192;9.886;2023-03-14T01:15:38;3.13;;;1.37;;
13951;SDS011;39535;52.192;9.886;2023-03-14T01:18:04;2.33;;;1.23;;
13951;SDS011;39535;52.192;9.886;2023-03-14T01:20:32;2.23;;;1.10;;
13951;SDS011;39535;52.192;9.886;2023-03-14T01:22:58;1.73;;;0.80;;
13951;SDS011;39535;52.192;9.886;2023-03-14T01:25:25;1.40;;;1.00;;
13951;SDS011;39535;52.192;9.886;2023-03-14T01:27:51;3.07;;;1.10;;
13951;SDS011;39535;52.192;9.886;2023-03-14T01:30:18;2.10;;;1.17;;
13951;SDS011;39535;52.192;9.886;2023-03-14T01:32:45;1.20;;;1.10;;
13951;SDS011;39535;52.192;9.886;2023-03-14T01:35:11;1.30;;;1.17;;
13951;SDS011;39535;52.192;9.886;2023-03-14T01:37:39;1.30;;;1.00;;
13951;SDS011;39535;52.192;9.886;2023-03-14T01:40:05;3.00;;;1.73;;
13951;SDS011;39535;52.192;9.886;2023-03-14T01:42:32;1.57;;;1.30;;
13951;SDS011;39535;52.192;9.886;2023-03-14T01:44:59;0.93;;;0.80;;
13951;SDS011;39535;52.192;9.886;2023-03-14T01:47:27;1.67;;;1.00;;
13951;SDS011;39535;52.192;9.886;2023-03-14T01:49:54;1.30;;;0.80;;
13951;SDS011;39535;52.192;9.886;2023-03-14T01:52:25;2.27;;;0.97;;
13951;SDS011;39535;52.192;9.886;2023-03-14T01:54:58;1.23;;;0.80;;
13951;SDS011;39535;52.192;9.886;2023-03-14T01:57:30;3.40;;;2.23;;
13951;SDS011;39535;52.192;9.886;2023-03-14T01:59:59;1.80;;;0.90;;
13951;SDS011;39535;52.192;9.886;2023-03-14T02:02:33;1.77;;;0.80;;
13951;SDS011;39535;52.192;9.886;2023-03-14T02:05:00;1.83;;;0.63;;
13951;SDS011;39535;52.192;9.886;2023-03-14T02:07:30;0.97;;;0.90;;
13951;SDS011;39535;52.192;9.886;2023-03-14T02:10:02;2.00;;;1.27;;
13951;SDS011;39535;52.192;9.886;2023-03-14T02:12:31;0.70;;;0.70;;
13951;SDS011;39535;52.192;9.886;2023-03-14T02:14:58;2.07;;;0.83;;
13951;SDS011;39535;52.192;9.886;2023-03-14T02:17:24;1.40;;;0.90;;
13951;SDS011;39535;52.192;9.886;2023-03-14T02:19:57;1.73;;;1.20;;
13951;SDS011;39535;52.192;9.886;2023-03-14T02:22:33;1.70;;;0.90;;
13951;SDS011;39535;52.192;9.886;2023-03-14T02:25:04;1.90;;;1.00;;
13951;SDS011;39535;52.192;9.886;2023-03-14T02:27:37;2.47;;;1.00;;
13951;SDS011;39535;52.192;9.886;2023-03-14T02:30:05;1.30;;;1.00;;
13951;SDS011;39535;52.192;9.886;2023-03-14T02:32:35;1.03;;;0.77;;
13951;SDS011;39535;52.192;9.886;2023-03-14T02:35:05;1.70;;;0.97;;
13951;SDS011;39535;52.192;9.886;2023-03-14T02:37:35;1.40;;;1.07;;
13951;SDS011;39535;52.192;9.886;2023-03-14T02:40:07;1.60;;;1.47;;
13951;SDS011;39535;52.192;9.886;2023-03-14T02:42:34;1.37;;;1.10;;
13951;SDS011;39535;52.192;9.886;2023-03-14T02:45:31;1.30;;;0.70;;
13951;SDS011;39535;52.192;9.886;2023-03-14T02:48:00;2.80;;;1.00;;
13951;SDS011;39535;52.192;9.886;2023-03-14T02:50:30;1.10;;;0.80;;
13951;SDS011;39535;52.192;9.886;2023-03-14T02:52:59;4.47;;;1.03;;
13951;SDS011;39535;52.192;9.886;2023-03-14T02:55:26;1.87;;;0.93;;
13951;SDS011;39535;52.192;9.886;2023-03-14T02:57:52;2.43;;;1.00;;
13951;SDS011;39535;52.192;9.886;2023-03-14T03:00:20;2.83;;;0.77;;
13951;SDS011;39535;52.192;9.886;2023-03-14T03:02:47;2.00;;;0.90;;
13951;SDS011;39535;52.192;9.886;2023-03-14T03:05:13;2.43;;;0.80;;
13951;SDS011;39535;52.192;9.886;2023-03-14T03:07:39;2.63;;;1.53;;
13951;SDS011;39535;52.192;9.886;2023-03-14T03:10:06;2.97;;;1.00;;
13951;SDS011;39535;52.192;9.886;2023-03-14T03:12:33;1.93;;;0.80;;
13951;SDS011;39535;52.192;9.886;2023-03-14T03:15:00;2.00;;;0.90;;
13951;SDS011;39535;52.192;9.886;2023-03-14T03:17:27;1.60;;;0.70;;
13951;SDS011;39535;52.192;9.886;2023-03-14T03:19:53;1.67;;;0.83;;
13951;SDS011;39535;52.192;9.886;2023-03-14T03:22:20;2.00;;;1.10;;
13951;SDS011;39535;52.192;9.886;2023-03-14T03:24:46;2.53;;;0.70;;
13951;SDS011;39535;52.192;9.886;2023-03-14T03:27:12;2.87;;;0.70;;
13951;SDS011;39535;52.192;9.886;2023-03-14T03:29:39;3.43;;;1.37;;
13951;SDS011;39535;52.192;9.886;2023-03-14T03:32:05;2.07;;;0.80;;
13951;SDS011;39535;52.192;9.886;2023-03-14T03:34:33;1.67;;;0.83;;
13951;SDS011;39535;52.192;9.886;2023-03-14T03:37:00;1.93;;;0.80;;
13951;SDS011;39535;52.192;9.886;2023-03-14T03:39:26;3.10;;;0.80;;
13951;SDS011;39535;52.192;9.886;2023-03-14T03:41:52;2.10;;;0.87;;
13951;SDS011;39535;52.192;9.886;2023-03-14T03:44:19;1.67;;;0.60;;
13951;SDS011;39535;52.192;9.886;2023-03-14T03:46:45;2.33;;;0.90;;
13951;SDS011;39535;52.192;9.886;2023-03-14T03:49:11;0.90;;;0.57;;
13951;SDS011;39535;52.192;9.886;2023-03-14T03:51:40;1.87;;;0.83;;
13951;SDS011;39535;52.192;9.886;2023-03-14T03:54:06;2.83;;;0.97;;
13951;SDS011;39535;52.192;9.886;2023-03-14T03:56:33;2.63;;;0.93;;
13951;SDS011;39535;52.192;9.886;2023-03-14T03:58:59;1.23;;;0.70;;
13951;SDS011;39535;52.192;9.886;2023-03-14T04:01:25;3.23;;;0.80;;
13951;SDS011;39535;52.192;9.886;2023-03-14T04:03:52;1.77;;;0.60;;
13951;SDS011;39535;52.192;9.886;2023-03-14T04:06:18;2.57;;;1.10;;
13951;SDS011;39535;52.192;9.886;2023-03-14T04:08:46;1.83;;;0.60;;
13951;SDS011;39535;52.192;9.886;2023-03-14T04:11:12;1.27;;;0.40;;
13951;SDS011;39535;52.192;9.886;2023-03-14T04:13:38;1.43;;;0.40;;
13951;SDS011;39535;52.192;9.886;2023-03-14T04:16:09;0.67;;;0.30;;
13951;SDS011;39535;52.192;9.886;2023-03-14T04:18:40;0.67;;;0.30;;
13951;SDS011;39535;52.192;9.886;2023-03-14T04:21:06;0.87;;;0.30;;
13951;SDS011;39535;52.192;9.886;2023-03-14T04:23:32;0.83;;;0.30;;
13951;SDS011;39535;52.192;9.886;2023-03-14T04:26:00;1.07;;;0.30;;
13951;SDS011;39535;52.192;9.886;2023-03-14T04:28:27;1.27;;;0.20;;
13951;SDS011;39535;52.192;9.886;2023-03-14T04:30:53;0.70;;;0.20;;
13951;SDS011;39535;52.192;9.886;2023-03-14T04:33:19;0.80;;;0.20;;
13951;SDS011;39535;52.192;9.886;2023-03-14T04:35:46;0.23;;;0.20;;
13951;SDS011;39535;52.192;9.886;2023-03-14T04:38:13;0.17;;;0.17;;
13951;SDS011;39535;52.192;9.886;2023-03-14T04:40:40;1.37;;;0.30;;
13951;SDS011;39535;52.192;9.886;2023-03-14T04:43:08;0.73;;;0.30;;
13951;SDS011;39535;52.192;9.886;2023-03-14T04:45:36;0.93;;;0.20;;
13951;SDS011;39535;52.192;9.886;2023-03-14T04:48:03;0.83;;;0.40;;
13951;SDS011;39535;52.192;9.886;2023-03-14T04:50:29;0.97;;;0.30;;
13951;SDS011;39535;52.192;9.886;2023-03-14T04:52:56;1.37;;;0.40;;
13951;SDS011;39535;52.192;9.886;2023-03-14T04:55:22;0.83;;;0.43;;
13951;SDS011;39535;52.192;9.886;2023-03-14T04:57:48;3.13;;;1.53;;
13951;SDS011;39535;52.192;9.886;2023-03-14T05:00:16;0.63;;;0.50;;
13951;SDS011;39535;52.192;9.886;2023-03-14T05:02:43;2.00;;;0.47;;
13951;SDS011;39535;52.192;9.886;2023-03-14T05:05:10;2.03;;;0.50;;
13951;SDS011;39535;52.192;9.886;2023-03-14T05:07:36;1.47;;;0.43;;
13951;SDS011;39535;52.192;9.886;2023-03-14T05:10:03;1.47;;;0.80;;
13951;SDS011;39535;52.192;9.886;2023-03-14T05:12:30;1.80;;;0.90;;
13951;SDS011;39535;52.192;9.886;2023-03-14T05:14:56;0.60;;;0.57;;
13951;SDS011;39535;52.192;9.886;2023-03-14T05:17:23;1.63;;;0.73;;
13951;SDS011;39535;52.192;9.886;2023-03-14T05:19:50;2.00;;;0.70;;
13951;SDS011;39535;52.192;9.886;2023-03-14T05:22:16;2.47;;;0.70;;
13951;SDS011;39535;52.192;9.886;2023-03-14T05:24:42;2.13;;;0.60;;
13951;SDS011;39535;52.192;9.886;2023-03-14T05:27:09;2.60;;;0.70;;
13951;SDS011;39535;52.192;9.886;2023-03-14T05:29:35;1.23;;;0.60;;
13951;SDS011;39535;52.192;9.886;2023-03-14T05:32:01;1.37;;;0.63;;
13951;SDS011;39535;52.192;9.886;2023-03-14T05:34:29;0.90;;;0.47;;
13951;SDS011;39535;52.192;9.886;2023-03-14T05:36:55;1.67;;;0.60;;
13951;SDS011;39535;52.192;9.886;2023-03-14T05:39:22;2.37;;;0.67;;
13951;SDS011;39535;52.192;9.886;2023-03-14T05:41:48;0.67;;;0.33;;
13951;SDS011;39535;52.192;9.886;2023-03-14T05:44:15;0.30;;;0.30;;
13951;SDS011;39535;52.192;9.886;2023-03-14T05:46:41;3.27;;;1.93;;
13951;SDS011;39535;52.192;9.886;2023-03-14T05:49:08;3.00;;;1.17;;
13951;SDS011;39535;52.192;9.886;2023-03-14T05:51:35;2.30;;;0.80;;
13951;SDS011;39535;52.192;9.886;2023-03-14T05:54:02;1.47;;;0.60;;
13951;SDS011;39535;52.192;9.886;2023-03-14T05:56:28;1.87;;;0.70;;
13951;SDS011;39535;52.192;9.886;2023-03-14T05:58:54;2.83;;;0.90;;
13951;SDS011;39535;52.192;9.886;2023-03-14T06:01:21;1.87;;;0.50;;
13951;SDS011;39535;52.192;9.886;2023-03-14T06:03:47;1.57;;;0.60;;
13951;SDS011;39535;52.192;9.886;2023-03-14T06:06:13;2.50;;;0.60;;
13951;SDS011;39535;52.192;9.886;2023-03-14T06:08:42;3.07;;;0.70;;
13951;SDS011;39535;52.192;9.886;2023-03-14T06:11:09;2.07;;;0.70;;
13951;SDS011;39535;52.192;9.886;2023-03-14T06:13:35;1.13;;;0.53;;
13951;SDS011;39535;52.192;9.886;2023-03-14T06:16:01;1.87;;;0.60;;
13951;SDS011;39535;52.192;9.886;2023-03-14T06:18:28;2.47;;;0.70;;
13951;SDS011;39535;52.192;9.886;2023-03-14T06:20:54;2.07;;;0.50;;
13951;SDS011;39535;52.192;9.886;2023-03-14T06:23:21;1.47;;;0.77;;
13951;SDS011;39535;52.192;9.886;2023-03-14T06:25:49;2.93;;;0.60;;
13951;SDS011;39535;52.192;9.886;2023-03-14T06:28:15;5.40;;;0.70;;
13951;SDS011;39535;52.192;9.886;2023-03-14T06:30:42;2.20;;;0.50;;
13951;SDS011;39535;52.192;9.886;2023-03-14T06:33:08;2.37;;;0.70;;
13951;SDS011;39535;52.192;9.886;2023-03-14T06:35:34;1.13;;;0.47;;
13951;SDS011;39535;52.192;9.886;2023-03-14T06:38:00;2.07;;;0.80;;
13951;SDS011;39535;52.192;9.886;2023-03-14T06:40:27;3.60;;;0.57;;
13951;SDS011;39535;52.192;9.886;2023-03-14T06:42:54;2.33;;;0.60;;
13951;SDS011;39535;52.192;9.886;2023-03-14T06:45:21;1.83;;;0.53;;
13951;SDS011;39535;52.192;9.886;2023-03-14T06:47:47;1.50;;;0.40;;
13951;SDS011;39535;52.192;9.886;2023-03-14T06:50:14;0.93;;;0.53;;
13951;SDS011;39535;52.192;9.886;2023-03-14T06:52:40;0.40;;;0.40;;
13951;SDS011;39535;52.192;9.886;2023-03-14T06:55:11;1.80;;;0.50;;
13951;SDS011;39535;52.192;9.886;2023-03-14T06:57:37;1.67;;;0.77;;
13951;SDS011;39535;52.192;9.886;2023-03-14T07:00:05;1.13;;;0.50;;
13951;SDS011;39535;52.192;9.886;2023-03-14T07:02:33;1.20;;;0.50;;
13951;SDS011;39535;52.192;9.886;2023-03-14T07:05:00;0.80;;;0.60;;
13951;SDS011;39535;52.192;9.886;2023-03-14T07:07:26;0.87;;;0.30;;
13951;SDS011;39535;52.192;9.886;2023-03-14T07:09:53;1.33;;;0.40;;
13951;SDS011;39535;52.192;9.886;2023-03-14T07:12:19;2.27;;;0.50;;
13951;SDS011;39535;52.192;9.886;2023-03-14T07:14:45;1.47;;;0.50;;
13951;SDS011;39535;52.192;9.886;2023-03-14T07:17:13;2.10;;;0.77;;
13951;SDS011;39535;52.192;9.886;2023-03-14T07:19:39;1.67;;;0.47;;
13951;SDS011;39535;52.192;9.886;2023-03-14T07:22:06;1.97;;;0.73;;
13951;SDS011;39535;52.192;9.886;2023-03-14T07:24:32;1.80;;;0.60;;
13951;SDS011;39535;52.192;9.886;2023-03-14T07:26:58;3.40;;;0.80;;
13951;SDS011;39535;52.192;9.886;2023-03-14T07:29:25;1.83;;;0.60;;
13951;SDS011;39535;52.192;9.886;2023-03-14T07:31:51;1.63;;;0.80;;
13951;SDS011;39535;52.192;9.886;2023-03-14T07:34:19;1.37;;;0.57;;
13951;SDS011;39535;52.192;9.886;2023-03-14T07:36:45;1.80;;;0.70;;
13951;SDS011;39535;52.192;9.886;2023-03-14T07:39:11;1.50;;;0.50;;
13951;SDS011;39535;52.192;9.886;2023-03-14T07:41:38;2.27;;;0.80;;
13951;SDS011;39535;52.192;9.886;2023-03-14T07:44:04;3.07;;;1.07;;
13951;SDS011;39535;52.192;9.886;2023-03-14T07:46:30;4.07;;;0.70;;
13951;SDS011;39535;52.192;9.886;2023-03-14T07:48:56;1.97;;;0.77;;
13951;SDS011;39535;52.192;9.886;2023-03-14T07:51:24;1.47;;;0.77;;
13951;SDS011;39535;52.192;9.886;2023-03-14T07:53:50;1.97;;;0.83;;
13951;SDS011;39535;52.192;9.886;2023-03-14T07:56:17;1.83;;;0.80;;
13951;SDS011;39535;52.192;9.886;2023-03-14T07:58:43;1.60;;;0.70;;
13951;SDS011;39535;52.192;9.886;2023-03-14T08:01:09;1.60;;;0.80;;
13951;SDS011;39535;52.192;9.886;2023-03-14T08:03:36;1.87;;;0.70;;
13951;SDS011;39535;52.192;9.886;2023-03-14T08:06:02;3.53;;;0.90;;
13951;SDS011;39535;52.192;9.886;2023-03-14T08:08:30;2.73;;;1.30;;
13951;SDS011;39535;52.192;9.886;2023-03-14T08:11:02;4.10;;;0.90;;
13951;SDS011;39535;52.192;9.886;2023-03-14T08:13:29;2.50;;;0.77;;
13951;SDS011;39535;52.192;9.886;2023-03-14T08:15:55;3.77;;;0.87;;
13951;SDS011;39535;52.192;9.886;2023-03-14T08:18:22;2.53;;;0.80;;
13951;SDS011;39535;52.192;9.886;2023-03-14T08:20:48;2.93;;;0.90;;
13951;SDS011;39535;52.192;9.886;2023-03-14T08:23:15;2.53;;;0.70;;
13951;SDS011;39535;52.192;9.886;2023-03-14T08:25:42;1.70;;;0.60;;
13951;SDS011;39535;52.192;9.886;2023-03-14T08:28:09;1.07;;;0.80;;
13951;SDS011;39535;52.192;9.886;2023-03-14T08:30:35;1.40;;;0.73;;
13951;SDS011;39535;52.192;9.886;2023-03-14T08:33:02;0.63;;;0.50;;
13951;SDS011;39535;52.192;9.886;2023-03-14T08:35:31;1.50;;;0.50;;
13951;SDS011;39535;52.192;9.886;2023-03-14T08:37:57;1.50;;;0.80;;
13951;SDS011;39535;52.192;9.886;2023-03-14T08:40:23;1.40;;;0.80;;
13951;SDS011;39535;52.192;9.886;2023-03-14T08:42:51;2.00;;;0.77;;
13951;SDS011;39535;52.192;9.886;2023-03-14T08:45:18;1.77;;;0.70;;
13951;SDS011;39535;52.192;9.886;2023-03-14T08:47:44;3.07;;;0.70;;
13951;SDS011;39535;52.192;9.886;2023-03-14T08:50:13;2.57;;;0.80;;
13951;SDS011;39535;52.192;9.886;2023-03-14T08:52:42;1.30;;;0.60;;
13951;SDS011;39535;52.192;9.886;2023-03-14T08:55:08;2.93;;;1.03;;
13951;SDS011;39535;52.192;9.886;2023-03-14T08:57:39;3.50;;;1.10;;
13951;SDS011;39535;52.192;9.886;2023-03-14T09:00:07;2.63;;;0.73;;
13951;SDS011;39535;52.192;9.886;2023-03-14T09:02:40;1.70;;;0.57;;
13951;SDS011;39535;52.192;9.886;2023-03-14T09:05:06;2.37;;;0.67;;
13951;SDS011;39535;52.192;9.886;2023-03-14T09:07:34;0.90;;;0.50;;
13951;SDS011;39535;52.192;9.886;2023-03-14T09:10:00;0.95;;;0.50;;
13951;SDS011;39535;52.192;9.886;2023-03-14T09:12:29;3.33;;;0.50;;
13951;SDS011;39535;52.192;9.886;2023-03-14T09:14:56;0.63;;;0.50;;
13951;SDS011;39535;52.192;9.886;2023-03-14T09:17:24;0.93;;;0.60;;
13951;SDS011;39535;52.192;9.886;2023-03-14T09:19:50;1.37;;;0.60;;
13951;SDS011;39535;52.192;9.886;2023-03-14T09:22:16;0.87;;;0.50;;
13951;SDS011;39535;52.192;9.886;2023-03-14T09:24:43;1.20;;;0.40;;
13951;SDS011;39535;52.192;9.886;2023-03-14T09:27:09;2.53;;;0.67;;
13951;SDS011;39535;52.192;9.886;2023-03-14T09:29:36;2.20;;;0.50;;
13951;SDS011;39535;52.192;9.886;2023-03-14T09:32:02;0.73;;;0.37;;
13951;SDS011;39535;52.192;9.886;2023-03-14T09:34:30;1.50;;;0.60;;
13951;SDS011;39535;52.192;9.886;2023-03-14T09:36:57;0.60;;;0.30;;
13951;SDS011;39535;52.192;9.886;2023-03-14T09:39:23;0.93;;;0.40;;
13951;SDS011;39535;52.192;9.886;2023-03-14T09:41:50;0.70;;;0.37;;
13951;SDS011;39535;52.192;9.886;2023-03-14T09:44:19;0.90;;;0.50;;
13951;SDS011;39535;52.192;9.886;2023-03-14T09:46:51;0.53;;;0.30;;
13951;SDS011;39535;52.192;9.886;2023-03-14T09:49:20;0.30;;;0.30;;
13951;SDS011;39535;52.192;9.886;2023-03-14T09:51:51;8.60;;;1.53;;
13951;SDS011;39535;52.192;9.886;2023-03-14T09:54:26;0.37;;;0.20;;
13951;SDS011;39535;52.192;9.886;2023-03-14T09:56:57;0.50;;;0.30;;
13951;SDS011;39535;52.192;9.886;2023-03-14T09:59:23;0.67;;;0.47;;
13951;SDS011;39535;52.192;9.886;2023-03-14T10:01:51;1.50;;;0.50;;
13951;SDS011;39535;52.192;9.886;2023-03-14T10:04:21;0.63;;;0.30;;
13951;SDS011;39535;52.192;9.886;2023-03-14T10:06:49;0.47;;;0.30;;
13951;SDS011;39535;52.192;9.886;2023-03-14T10:09:17;0.90;;;0.20;;
13951;SDS011;39535;52.192;9.886;2023-03-14T10:11:50;0.57;;;0.40;;
13951;SDS011;39535;52.192;9.886;2023-03-14T10:14:28;0.70;;;0.30;;
13951;SDS011;39535;52.192;9.886;2023-03-14T10:16:55;1.03;;;0.30;;
13951;SDS011;39535;52.192;9.886;2023-03-14T10:19:31;0.93;;;0.60;;
13951;SDS011;39535;52.192;9.886;2023-03-14T10:22:00;0.55;;;0.30;;
13951;SDS011;39535;52.192;9.886;2023-03-14T10:24:28;0.20;;;0.20;;
13951;SDS011;39535;52.192;9.886;2023-03-14T10:26:57;0.50;;;0.30;;
13951;SDS011;39535;52.192;9.886;2023-03-14T10:29:27;0.30;;;0.30;;
13951;SDS011;39535;52.192;9.886;2023-03-14T10:31:54;0.30;;;0.30;;
13951;SDS011;39535;52.192;9.886;2023-03-14T10:34:24;1.17;;;0.37;;
13951;SDS011;39535;52.192;9.886;2023-03-14T10:36:52;1.13;;;0.23;;
13951;SDS011;39535;52.192;9.886;2023-03-14T10:39:28;0.83;;;0.50;;
13951;SDS011;39535;52.192;9.886;2023-03-14T10:42:04;0.30;;;0.30;;
13951;SDS011;39535;52.192;9.886;2023-03-14T10:44:38;0.40;;;0.40;;
13951;SDS011;39535;52.192;9.886;2023-03-14T10:47:05;0.87;;;0.20;;
13951;SDS011;39535;52.192;9.886;2023-03-14T10:49:32;2.20;;;0.30;;
13951;SDS011;39535;52.192;9.886;2023-03-14T10:52:12;0.53;;;0.30;;
13951;SDS011;39535;52.192;9.886;2023-03-14T10:54:42;1.23;;;0.30;;
13951;SDS011;39535;52.192;9.886;2023-03-14T10:57:12;0.70;;;0.40;;
13951;SDS011;39535;52.192;9.886;2023-03-14T10:59:39;0.30;;;0.20;;
13951;SDS011;39535;52.192;9.886;2023-03-14T11:02:13;0.30;;;0.30;;
13951;SDS011;39535;52.192;9.886;2023-03-14T11:04:59;0.63;;;0.20;;
13951;SDS011;39535;52.192;9.886;2023-03-14T11:07:36;0.30;;;0.30;;
13951;SDS011;39535;52.192;9.886;2023-03-14T11:10:10;0.67;;;0.50;;
13951;SDS011;39535;52.192;9.886;2023-03-14T11:12:46;0.30;;;0.20;;
13951;SDS011;39535;52.192;9.886;2023-03-14T11:15:21;0.30;;;0.20;;
13951;SDS011;39535;52.192;9.886;2023-03-14T11:17:58;0.67;;;0.30;;
13951;SDS011;39535;52.192;9.886;2023-03-14T11:20:42;0.40;;;0.40;;
13951;SDS011;39535;52.192;9.886;2023-03-14T11:23:16;0.30;;;0.30;;
13951;SDS011;39535;52.192;9.886;2023-03-14T11:25:49;0.23;;;0.23;;
13951;SDS011;39535;52.192;9.886;2023-03-14T11:28:22;0.50;;;0.20;;
13951;SDS011;39535;52.192;9.886;2023-03-14T11:30:57;0.90;;;0.40;;
13951;SDS011;39535;52.192;9.886;2023-03-14T11:33:31;0.97;;;0.30;;
13951;SDS011;39535;52.192;9.886;2023-03-14T11:36:03;0.37;;;0.23;;
13951;SDS011;39535;52.192;9.886;2023-03-14T11:38:34;0.30;;;0.30;;
13951;SDS011;39535;52.192;9.886;2023-03-14T11:41:08;0.40;;;0.40;;
13951;SDS011;39535;52.192;9.886;2023-03-14T11:43:40;0.40;;;0.30;;
13951;SDS011;39535;52.192;9.886;2023-03-14T11:46:09;0.87;;;0.40;;
13951;SDS011;39535;52.192;9.886;2023-03-14T11:48:39;2.83;;;0.90;;
13951;SDS011;39535;52.192;9.886;2023-03-14T11:51:12;3.20;;;0.90;;
13951;SDS011;39535;52.192;9.886;2023-03-14T11:53:49;4.73;;;1.23;;
13951;SDS011;39535;52.192;9.886;2023-03-14T11:56:27;2.00;;;0.83;;
13951;SDS011;39535;52.192;9.886;2023-03-14T11:58:59;1.37;;;0.50;;
13951;SDS011;39535;52.192;9.886;2023-03-14T12:01:31;0.40;;;0.40;;
13951;SDS011;39535;52.192;9.886;2023-03-14T12:04:09;1.13;;;0.80;;
13951;SDS011;39535;52.192;9.886;2023-03-14T12:06:44;1.10;;;0.30;;
13951;SDS011;39535;52.192;9.886;2023-03-14T12:09:13;0.70;;;0.70;;
13951;SDS011;39535;52.192;9.886;2023-03-14T12:11:44;1.13;;;0.50;;
13951;SDS011;39535;52.192;9.886;2023-03-14T12:14:17;1.67;;;1.57;;
13951;SDS011;39535;52.192;9.886;2023-03-14T12:16:46;0.80;;;0.80;;
13951;SDS011;39535;52.192;9.886;2023-03-14T12:22:06;1.77;;;1.10;;
13951;SDS011;39535;52.192;9.886;2023-03-14T12:24:40;0.70;;;0.70;;
13951;SDS011;39535;52.192;9.886;2023-03-14T12:27:13;1.63;;;1.10;;
13951;SDS011;39535;52.192;9.886;2023-03-14T12:30:24;0.40;;;0.40;;
13951;SDS011;39535;52.192;9.886;2023-03-14T12:35:52;0.50;;;0.50;;
13951;SDS011;39535;52.192;9.886;2023-03-14T12:38:23;0.60;;;0.40;;
13951;SDS011;39535;52.192;9.886;2023-03-14T12:40:57;0.70;;;0.70;;
13951;SDS011;39535;52.192;9.886;2023-03-14T12:43:29;0.60;;;0.50;;
13951;SDS011;39535;52.192;9.886;2023-03-14T12:46:07;1.10;;;1.00;;
13951;SDS011;39535;52.192;9.886;2023-03-14T12:48:35;1.13;;;0.30;;
13951;SDS011;39535;52.192;9.886;2023-03-14T12:51:05;2.13;;;1.23;;
13951;SDS011;39535;52.192;9.886;2023-03-14T12:53:54;2.30;;;2.10;;
13951;SDS011;39535;52.192;9.886;2023-03-14T12:59:28;0.70;;;0.60;;
13951;SDS011;39535;52.192;9.886;2023-03-14T13:01:59;0.97;;;0.90;;
13951;SDS011;39535;52.192;9.886;2023-03-14T13:04:29;1.30;;;0.90;;
13951;SDS011;39535;52.192;9.886;2023-03-14T13:06:59;0.60;;;0.60;;
13951;SDS011;39535;52.192;9.886;2023-03-14T13:09:49;0.50;;;0.50;;
13951;SDS011;39535;52.192;9.886;2023-03-14T13:12:22;0.50;;;0.50;;
13951;SDS011;39535;52.192;9.886;2023-03-14T13:14:57;2.50;;;1.87;;
13951;SDS011;39535;52.192;9.886;2023-03-14T13:17:26;1.90;;;1.60;;
13951;SDS011;39535;52.192;9.886;2023-03-14T13:19:56;1.47;;;0.50;;
13951;SDS011;39535;52.192;9.886;2023-03-14T13:22:27;0.70;;;0.53;;
13951;SDS011;39535;52.192;9.886;2023-03-14T13:24:58;1.80;;;1.20;;
13951;SDS011;39535;52.192;9.886;2023-03-14T13:27:26;1.83;;;1.57;;
13951;SDS011;39535;52.192;9.886;2023-03-14T13:29:52;1.90;;;1.33;;
13951;SDS011;39535;52.192;9.886;2023-03-14T13:32:21;4.43;;;1.60;;
13951;SDS011;39535;52.192;9.886;2023-03-14T13:34:51;4.20;;;3.07;;
13951;SDS011;39535;52.192;9.886;2023-03-14T13:37:21;2.83;;;1.37;;
13951;SDS011;39535;52.192;9.886;2023-03-14T13:39:49;1.60;;;1.00;;
13951;SDS011;39535;52.192;9.886;2023-03-14T13:42:16;4.40;;;2.77;;
13951;SDS011;39535;52.192;9.886;2023-03-14T13:44:43;2.17;;;1.40;;
13951;SDS011;39535;52.192;9.886;2023-03-14T13:47:11;3.73;;;1.57;;
13951;SDS011;39535;52.192;9.886;2023-03-14T13:49:41;4.43;;;1.67;;
13951;SDS011;39535;52.192;9.886;2023-03-14T13:52:22;7.57;;;3.40;;
13951;SDS011;39535;52.192;9.886;2023-03-14T13:54:52;7.57;;;1.63;;
13951;SDS011;39535;52.192;9.886;2023-03-14T13:57:19;4.37;;;1.30;;
13951;SDS011;39535;52.192;9.886;2023-03-14T13:59:45;6.07;;;2.00;;
13951;SDS011;39535;52.192;9.886;2023-03-14T14:02:24;3.50;;;1.20;;
13951;SDS011;39535;52.192;9.886;2023-03-14T14:04:53;2.07;;;1.10;;
13951;SDS011;39535;52.192;9.886;2023-03-14T14:07:20;4.53;;;2.17;;
13951;SDS011;39535;52.192;9.886;2023-03-14T14:09:47;8.80;;;1.00;;
13951;SDS011;39535;52.192;9.886;2023-03-14T14:12:15;5.93;;;1.20;;
13951;SDS011;39535;52.192;9.886;2023-03-14T14:14:47;7.73;;;1.07;;
13951;SDS011;39535;52.192;9.886;2023-03-14T14:17:17;4.70;;;1.07;;
13951;SDS011;39535;52.192;9.886;2023-03-14T14:19:47;4.00;;;1.17;;
13951;SDS011;39535;52.192;9.886;2023-03-14T14:22:16;2.93;;;1.47;;
13951;SDS011;39535;52.192;9.886;2023-03-14T14:24:43;4.73;;;1.40;;
13951;SDS011;39535;52.192;9.886;2023-03-14T14:27:12;7.20;;;1.57;;
13951;SDS011;39535;52.192;9.886;2023-03-14T14:29:41;4.93;;;2.20;;
13951;SDS011;39535;52.192;9.886;2023-03-14T14:32:11;4.97;;;1.97;;
13951;SDS011;39535;52.192;9.886;2023-03-14T14:34:39;4.40;;;2.40;;
13951;SDS011;39535;52.192;9.886;2023-03-14T14:37:17;12.97;;;6.80;;
13951;SDS011;39535;52.192;9.886;2023-03-14T14:39:45;10.43;;;4.63;;
13951;SDS011;39535;52.192;9.886;2023-03-14T14:42:13;8.50;;;3.17;;
13951;SDS011;39535;52.192;9.886;2023-03-14T14:44:41;13.17;;;2.97;;
13951;SDS011;39535;52.192;9.886;2023-03-14T14:47:12;22.87;;;4.87;;
13951;SDS011;39535;52.192;9.886;2023-03-14T14:49:39;7.00;;;3.40;;
13951;SDS011;39535;52.192;9.886;2023-03-14T14:52:09;12.03;;;5.20;;
13951;SDS011;39535;52.192;9.886;2023-03-14T14:54:43;19.50;;;5.37;;
13951;SDS011;39535;52.192;9.886;2023-03-14T14:57:17;12.20;;;4.47;;
13951;SDS011;39535;52.192;9.886;2023-03-14T14:59:47;10.70;;;4.53;;
13951;SDS011;39535;52.192;9.886;2023-03-14T15:05:05;8.27;;;4.40;;
13951;SDS011;39535;52.192;9.886;2023-03-14T15:07:34;8.90;;;3.97;;
13951;SDS011;39535;52.192;9.886;2023-03-14T15:10:02;9.70;;;3.40;;